sensor_id;sensor_type;location;lat;lon;timestamp;temperature;humidity
62583;DHT22;48641;51.676;5.808;2023-04-01T00:01:25;15.50;66.90
62583;DHT22;48641;51.676;5.808;2023-04-01T00:03:51;15.50;66.90
62583;DHT22;48641;51.676;5.808;2023-04-01T00:06:18;15.50;66.90
62583;DHT22;48641;51.676;5.808;2023-04-01T00:08:44;15.50;66.90
62583;DHT22;48641;51.676;5.808;2023-04-01T00:11:10;15.50;67.00
62583;DHT22;48641;51.676;5.808;2023-04-01T00:13:35;15.50;66.90
62583;DHT22;48641;51.676;5.808;2023-04-01T00:16:01;15.50;66.90
62583;DHT22;48641;51.676;5.808;2023-04-01T00:18:28;15.50;66.80
62583;DHT22;48641;51.676;5.808;2023-04-01T00:20:54;15.50;66.80
62583;DHT22;48641;51.676;5.808;2023-04-01T00:23:20;15.50;66.80
62583;DHT22;48641;51.676;5.808;2023-04-01T00:25:46;15.50;66.90
62583;DHT22;48641;51.676;5.808;2023-04-01T00:28:14;15.50;66.80
62583;DHT22;48641;51.676;5.808;2023-04-01T00:30:40;15.50;66.80
62583;DHT22;48641;51.676;5.808;2023-04-01T00:33:06;15.50;66.70
62583;DHT22;48641;51.676;5.808;2023-04-01T00:35:31;15.50;66.70
62583;DHT22;48641;51.676;5.808;2023-04-01T00:37:58;15.50;67.70
62583;DHT22;48641;51.676;5.808;2023-04-01T00:42:55;15.50;66.70
62583;DHT22;48641;51.676;5.808;2023-04-01T00:45:32;15.50;66.80
62583;DHT22;48641;51.676;5.808;2023-04-01T00:48:02;15.50;66.80
62583;DHT22;48641;51.676;5.808;2023-04-01T00:50:30;15.50;66.80
62583;DHT22;48641;51.676;5.808;2023-04-01T00:52:58;15.50;66.80
62583;DHT22;48641;51.676;5.808;2023-04-01T00:55:25;15.40;66.80
62583;DHT22;48641;51.676;5.808;2023-04-01T00:57:53;15.50;66.90
62583;DHT22;48641;51.676;5.808;2023-04-01T01:00:21;15.50;66.90
62583;DHT22;48641;51.676;5.808;2023-04-01T01:02:49;15.40;66.80
62583;DHT22;48641;51.676;5.808;2023-04-01T01:05:16;15.50;66.90
62583;DHT22;48641;51.676;5.808;2023-04-01T01:10:29;15.40;66.80
62583;DHT22;48641;51.676;5.808;2023-04-01T01:15:32;15.40;66.90
62583;DHT22;48641;51.676;5.808;2023-04-01T01:18:24;15.40;66.80
62583;DHT22;48641;51.676;5.808;2023-04-01T01:27:03;15.40;66.90
62583;DHT22;48641;51.676;5.808;2023-04-01T01:32:18;15.40;67.00
62583;DHT22;48641;51.676;5.808;2023-04-01T01:37:55;15.40;67.00
62583;DHT22;48641;51.676;5.808;2023-04-01T01:40:22;15.30;67.00
62583;DHT22;48641;51.676;5.808;2023-04-01T01:42:51;15.30;67.10
62583;DHT22;48641;51.676;5.808;2023-04-01T01:45:20;15.40;67.10
62583;DHT22;48641;51.676;5.808;2023-04-01T01:47:47;15.40;67.10
62583;DHT22;48641;51.676;5.808;2023-04-01T01:50:15;15.40;67.10
62583;DHT22;48641;51.676;5.808;2023-04-01T01:52:41;15.40;67.00
62583;DHT22;48641;51.676;5.808;2023-04-01T01:57:51;15.40;66.90
62583;DHT22;48641;51.676;5.808;2023-04-01T02:00:17;15.40;67.00
62583;DHT22;48641;51.676;5.808;2023-04-01T02:02:46;15.40;67.00
62583;DHT22;48641;51.676;5.808;2023-04-01T02:05:23;15.40;66.90
62583;DHT22;48641;51.676;5.808;2023-04-01T02:08:13;15.40;66.90
62583;DHT22;48641;51.676;5.808;2023-04-01T02:10:44;15.50;66.90
62583;DHT22;48641;51.676;5.808;2023-04-01T02:13:45;15.40;67.00
62583;DHT22;48641;51.676;5.808;2023-04-01T02:16:21;15.40;66.80
62583;DHT22;48641;51.676;5.808;2023-04-01T02:18:51;15.40;66.90
62583;DHT22;48641;51.676;5.808;2023-04-01T02:21:18;15.40;67.00
62583;DHT22;48641;51.676;5.808;2023-04-01T02:23:46;15.30;66.90
62583;DHT22;48641;51.676;5.808;2023-04-01T02:26:13;15.30;67.20
62583;DHT22;48641;51.676;5.808;2023-04-01T02:28:40;15.30;67.20
62583;DHT22;48641;51.676;5.808;2023-04-01T02:31:09;15.30;67.10
62583;DHT22;48641;51.676;5.808;2023-04-01T02:33:37;15.30;67.10
62583;DHT22;48641;51.676;5.808;2023-04-01T02:36:04;15.30;67.10
62583;DHT22;48641;51.676;5.808;2023-04-01T02:38:30;15.30;67.00
62583;DHT22;48641;51.676;5.808;2023-04-01T02:41:00;15.30;67.10
62583;DHT22;48641;51.676;5.808;2023-04-01T02:43:27;15.40;67.10
62583;DHT22;48641;51.676;5.808;2023-04-01T02:45:52;15.30;67.00
62583;DHT22;48641;51.676;5.808;2023-04-01T02:48:18;15.40;67.10
62583;DHT22;48641;51.676;5.808;2023-04-01T02:50:44;15.40;67.00
62583;DHT22;48641;51.676;5.808;2023-04-01T02:53:09;15.40;67.00
62583;DHT22;48641;51.676;5.808;2023-04-01T02:55:35;15.30;66.90
62583;DHT22;48641;51.676;5.808;2023-04-01T02:58:01;15.40;67.00
62583;DHT22;48641;51.676;5.808;2023-04-01T03:00:27;15.30;66.90
62583;DHT22;48641;51.676;5.808;2023-04-01T03:02:53;15.30;66.90
62583;DHT22;48641;51.676;5.808;2023-04-01T03:05:19;15.40;66.90
62583;DHT22;48641;51.676;5.808;2023-04-01T03:07:45;15.40;66.90
62583;DHT22;48641;51.676;5.808;2023-04-01T03:10:10;15.40;67.00
62583;DHT22;48641;51.676;5.808;2023-04-01T03:12:36;15.40;66.90
62583;DHT22;48641;51.676;5.808;2023-04-01T03:15:02;15.30;66.90
62583;DHT22;48641;51.676;5.808;2023-04-01T03:17:28;15.30;66.90
62583;DHT22;48641;51.676;5.808;2023-04-01T03:19:54;15.30;66.90
62583;DHT22;48641;51.676;5.808;2023-04-01T03:22:19;15.30;66.90
62583;DHT22;48641;51.676;5.808;2023-04-01T03:24:47;15.40;66.90
62583;DHT22;48641;51.676;5.808;2023-04-01T03:27:13;15.30;66.90
62583;DHT22;48641;51.676;5.808;2023-04-01T03:29:38;15.30;66.80
62583;DHT22;48641;51.676;5.808;2023-04-01T03:32:04;15.30;66.90
62583;DHT22;48641;51.676;5.808;2023-04-01T03:34:30;15.30;66.80
62583;DHT22;48641;51.676;5.808;2023-04-01T03:36:56;15.30;66.90
62583;DHT22;48641;51.676;5.808;2023-04-01T03:39:22;15.40;67.00
62583;DHT22;48641;51.676;5.808;2023-04-01T03:41:47;15.30;66.80
62583;DHT22;48641;51.676;5.808;2023-04-01T03:44:13;15.40;66.90
62583;DHT22;48641;51.676;5.808;2023-04-01T03:46:39;15.40;66.80
62583;DHT22;48641;51.676;5.808;2023-04-01T03:49:11;15.40;66.80
62583;DHT22;48641;51.676;5.808;2023-04-01T03:51:43;15.40;66.80
62583;DHT22;48641;51.676;5.808;2023-04-01T03:54:10;15.40;67.70
62583;DHT22;48641;51.676;5.808;2023-04-01T03:56:36;15.40;66.80
62583;DHT22;48641;51.676;5.808;2023-04-01T03:59:04;15.40;66.80
62583;DHT22;48641;51.676;5.808;2023-04-01T04:01:30;15.40;66.80
62583;DHT22;48641;51.676;5.808;2023-04-01T04:03:56;15.40;66.80
62583;DHT22;48641;51.676;5.808;2023-04-01T04:06:23;15.40;66.80
62583;DHT22;48641;51.676;5.808;2023-04-01T04:08:49;15.40;66.80
62583;DHT22;48641;51.676;5.808;2023-04-01T04:11:15;15.30;66.80
62583;DHT22;48641;51.676;5.808;2023-04-01T04:13:41;15.40;66.80
62583;DHT22;48641;51.676;5.808;2023-04-01T04:16:07;15.30;66.80
62583;DHT22;48641;51.676;5.808;2023-04-01T04:18:33;15.30;66.80
62583;DHT22;48641;51.676;5.808;2023-04-01T04:20:59;15.30;66.80
62583;DHT22;48641;51.676;5.808;2023-04-01T04:23:25;15.30;66.80
62583;DHT22;48641;51.676;5.808;2023-04-01T04:26:11;15.30;66.80
62583;DHT22;48641;51.676;5.808;2023-04-01T04:28:37;15.40;66.80
62583;DHT22;48641;51.676;5.808;2023-04-01T04:31:03;15.30;66.90
62583;DHT22;48641;51.676;5.808;2023-04-01T04:33:30;15.30;66.90
62583;DHT22;48641;51.676;5.808;2023-04-01T04:35:57;15.30;66.80
62583;DHT22;48641;51.676;5.808;2023-04-01T04:38:23;15.30;66.90
62583;DHT22;48641;51.676;5.808;2023-04-01T04:40:49;15.30;66.90
62583;DHT22;48641;51.676;5.808;2023-04-01T04:43:15;15.30;66.90
62583;DHT22;48641;51.676;5.808;2023-04-01T04:45:41;15.30;66.80
62583;DHT22;48641;51.676;5.808;2023-04-01T04:48:14;15.30;66.90
62583;DHT22;48641;51.676;5.808;2023-04-01T04:50:44;15.30;66.80
62583;DHT22;48641;51.676;5.808;2023-04-01T04:53:13;15.30;66.90
62583;DHT22;48641;51.676;5.808;2023-04-01T04:55:46;15.30;66.90
62583;DHT22;48641;51.676;5.808;2023-04-01T04:58:12;15.30;66.90
62583;DHT22;48641;51.676;5.808;2023-04-01T05:00:38;15.30;66.90
62583;DHT22;48641;51.676;5.808;2023-04-01T05:03:03;15.30;66.90
62583;DHT22;48641;51.676;5.808;2023-04-01T05:05:29;15.30;66.90
62583;DHT22;48641;51.676;5.808;2023-04-01T05:07:55;15.30;66.90
62583;DHT22;48641;51.676;5.808;2023-04-01T05:10:20;15.30;66.90
62583;DHT22;48641;51.676;5.808;2023-04-01T05:12:46;15.30;66.80
62583;DHT22;48641;51.676;5.808;2023-04-01T05:15:12;15.30;66.80
62583;DHT22;48641;51.676;5.808;2023-04-01T05:17:37;15.30;66.80
62583;DHT22;48641;51.676;5.808;2023-04-01T05:20:04;15.30;66.80
62583;DHT22;48641;51.676;5.808;2023-04-01T05:22:29;15.30;66.90
62583;DHT22;48641;51.676;5.808;2023-04-01T05:24:55;15.30;66.80
62583;DHT22;48641;51.676;5.808;2023-04-01T05:27:21;15.30;66.80
62583;DHT22;48641;51.676;5.808;2023-04-01T05:29:46;15.30;66.90
62583;DHT22;48641;51.676;5.808;2023-04-01T05:32:12;15.30;66.80
62583;DHT22;48641;51.676;5.808;2023-04-01T05:34:38;15.30;67.80
62583;DHT22;48641;51.676;5.808;2023-04-01T05:37:03;15.30;66.80
62583;DHT22;48641;51.676;5.808;2023-04-01T05:39:29;15.30;66.80
62583;DHT22;48641;51.676;5.808;2023-04-01T05:41:54;15.30;66.80
62583;DHT22;48641;51.676;5.808;2023-04-01T05:44:20;15.30;66.80
62583;DHT22;48641;51.676;5.808;2023-04-01T05:46:45;15.30;66.80
62583;DHT22;48641;51.676;5.808;2023-04-01T05:49:11;15.30;66.80
62583;DHT22;48641;51.676;5.808;2023-04-01T05:51:37;15.30;66.80
62583;DHT22;48641;51.676;5.808;2023-04-01T07:39:06;15.20;67.10
62583;DHT22;48641;51.676;5.808;2023-04-01T07:41:02;15.20;67.00
62583;DHT22;48641;51.676;5.808;2023-04-01T07:43:44;15.20;67.10
62583;DHT22;48641;51.676;5.808;2023-04-01T07:49:16;15.20;67.10
62583;DHT22;48641;51.676;5.808;2023-04-01T07:54:47;15.20;67.10
62583;DHT22;48641;51.676;5.808;2023-04-01T07:57:32;15.20;67.00
62583;DHT22;48641;51.676;5.808;2023-04-01T08:11:36;15.10;67.60
62583;DHT22;48641;51.676;5.808;2023-04-01T08:20:14;15.10;67.70
62583;DHT22;48641;51.676;5.808;2023-04-01T08:22:50;15.10;67.70
62583;DHT22;48641;51.676;5.808;2023-04-01T08:25:24;15.10;67.90
62583;DHT22;48641;51.676;5.808;2023-04-01T08:27:59;15.10;68.10
62583;DHT22;48641;51.676;5.808;2023-04-01T08:30:41;15.10;68.20
62583;DHT22;48641;51.676;5.808;2023-04-01T08:33:25;15.10;68.40
62583;DHT22;48641;51.676;5.808;2023-04-01T08:36:11;15.20;68.60
62583;DHT22;48641;51.676;5.808;2023-04-01T09:00:30;15.40;69.10
62583;DHT22;48641;51.676;5.808;2023-04-01T09:06:17;15.40;69.30
62583;DHT22;48641;51.676;5.808;2023-04-01T09:20:51;15.50;70.00
62583;DHT22;48641;51.676;5.808;2023-04-01T09:39:42;15.30;70.00
62583;DHT22;48641;51.676;5.808;2023-04-01T09:53:14;15.30;69.70
62583;DHT22;48641;51.676;5.808;2023-04-01T10:07:48;15.20;69.40
62583;DHT22;48641;51.676;5.808;2023-04-01T10:21:23;15.10;70.00
62583;DHT22;48641;51.676;5.808;2023-04-01T10:29:52;15.10;69.40
62583;DHT22;48641;51.676;5.808;2023-04-01T10:35:45;15.10;69.40
62583;DHT22;48641;51.676;5.808;2023-04-01T10:50:04;15.10;69.70
62583;DHT22;48641;51.676;5.808;2023-04-01T10:55:37;15.00;69.60
62583;DHT22;48641;51.676;5.808;2023-04-01T11:10:12;15.00;69.70
62583;DHT22;48641;51.676;5.808;2023-04-01T11:21:59;15.10;70.60
62583;DHT22;48641;51.676;5.808;2023-04-01T11:27:21;15.10;70.50
62583;DHT22;48641;51.676;5.808;2023-04-01T11:49:51;15.10;70.20
62583;DHT22;48641;51.676;5.808;2023-04-01T11:55:18;15.10;70.00
62583;DHT22;48641;51.676;5.808;2023-04-01T11:58:28;15.10;69.90
62583;DHT22;48641;51.676;5.808;2023-04-01T12:00:49;15.10;69.80
62583;DHT22;48641;51.676;5.808;2023-04-01T12:03:42;15.00;70.00
62583;DHT22;48641;51.676;5.808;2023-04-01T12:06:35;15.00;70.00
62583;DHT22;48641;51.676;5.808;2023-04-01T12:12:39;15.00;69.90
62583;DHT22;48641;51.676;5.808;2023-04-01T12:15:48;15.00;69.90
62583;DHT22;48641;51.676;5.808;2023-04-01T12:18:38;15.00;69.90
62583;DHT22;48641;51.676;5.808;2023-04-01T12:21:35;15.00;69.90
62583;DHT22;48641;51.676;5.808;2023-04-01T12:26:59;15.00;69.80
62583;DHT22;48641;51.676;5.808;2023-04-01T12:37:29;15.10;71.40
62583;DHT22;48641;51.676;5.808;2023-04-01T12:46:24;15.10;70.70
62583;DHT22;48641;51.676;5.808;2023-04-01T12:51:41;15.10;70.40
62583;DHT22;48641;51.676;5.808;2023-04-01T13:11:42;15.10;71.20
62583;DHT22;48641;51.676;5.808;2023-04-01T13:14:48;15.10;70.20
62583;DHT22;48641;51.676;5.808;2023-04-01T13:17:15;15.10;70.20
62583;DHT22;48641;51.676;5.808;2023-04-01T13:27:44;15.10;70.40
62583;DHT22;48641;51.676;5.808;2023-04-01T13:30:34;15.10;70.40
62583;DHT22;48641;51.676;5.808;2023-04-01T13:35:46;15.10;70.40
62583;DHT22;48641;51.676;5.808;2023-04-01T13:40:59;15.10;70.20
62583;DHT22;48641;51.676;5.808;2023-04-01T13:43:43;15.10;70.20
62583;DHT22;48641;51.676;5.808;2023-04-01T13:51:52;15.10;70.00
62583;DHT22;48641;51.676;5.808;2023-04-01T13:54:46;15.10;70.00
62583;DHT22;48641;51.676;5.808;2023-04-01T14:02:55;15.10;70.00
62583;DHT22;48641;51.676;5.808;2023-04-01T14:08:33;15.10;70.00
62583;DHT22;48641;51.676;5.808;2023-04-01T14:11:22;15.10;70.00
62583;DHT22;48641;51.676;5.808;2023-04-01T14:19:23;15.00;70.00
62583;DHT22;48641;51.676;5.808;2023-04-01T14:21:58;15.10;71.50
62583;DHT22;48641;51.676;5.808;2023-04-01T14:35:41;15.10;70.60
62583;DHT22;48641;51.676;5.808;2023-04-01T14:44:01;15.10;70.90
62583;DHT22;48641;51.676;5.808;2023-04-01T14:46:46;15.10;70.80
62583;DHT22;48641;51.676;5.808;2023-04-01T14:49:23;15.10;70.80
62583;DHT22;48641;51.676;5.808;2023-04-01T14:51:54;15.10;70.90
62583;DHT22;48641;51.676;5.808;2023-04-01T15:50:54;15.00;71.80
62583;DHT22;48641;51.676;5.808;2023-04-01T15:59:47;15.00;70.70
62583;DHT22;48641;51.676;5.808;2023-04-01T16:05:00;15.00;70.70
62583;DHT22;48641;51.676;5.808;2023-04-01T16:07:55;15.00;70.70
62583;DHT22;48641;51.676;5.808;2023-04-01T16:15:59;15.00;70.60
62583;DHT22;48641;51.676;5.808;2023-04-01T16:24:10;15.00;70.50
62583;DHT22;48641;51.676;5.808;2023-04-01T16:26:48;15.00;70.50
62583;DHT22;48641;51.676;5.808;2023-04-01T16:32:03;15.00;70.90
62583;DHT22;48641;51.676;5.808;2023-04-01T16:34:36;15.00;71.00
62583;DHT22;48641;51.676;5.808;2023-04-01T16:43:25;15.00;70.60
62583;DHT22;48641;51.676;5.808;2023-04-01T17:23:51;15.00;70.60
62583;DHT22;48641;51.676;5.808;2023-04-01T17:26:40;15.00;70.70
62583;DHT22;48641;51.676;5.808;2023-04-01T17:29:56;15.00;70.60
62583;DHT22;48641;51.676;5.808;2023-04-01T17:35:28;15.00;70.50
62583;DHT22;48641;51.676;5.808;2023-04-01T17:43:53;15.00;70.50
62583;DHT22;48641;51.676;5.808;2023-04-01T17:49:27;15.00;70.50
62583;DHT22;48641;51.676;5.808;2023-04-01T17:57:39;15.00;70.30
62583;DHT22;48641;51.676;5.808;2023-04-01T18:05:21;15.00;70.40
62583;DHT22;48641;51.676;5.808;2023-04-01T18:10:49;15.00;70.30
62583;DHT22;48641;51.676;5.808;2023-04-01T18:13:25;15.00;70.30
62583;DHT22;48641;51.676;5.808;2023-04-01T18:16:05;15.00;70.30
62583;DHT22;48641;51.676;5.808;2023-04-01T18:18:56;15.00;70.30
62583;DHT22;48641;51.676;5.808;2023-04-01T18:21:43;15.00;70.30
62583;DHT22;48641;51.676;5.808;2023-04-01T18:24:28;15.00;70.30
62583;DHT22;48641;51.676;5.808;2023-04-01T18:32:57;15.00;71.30
62583;DHT22;48641;51.676;5.808;2023-04-01T18:38:36;15.00;70.30
62583;DHT22;48641;51.676;5.808;2023-04-01T18:46:40;15.00;70.30
62583;DHT22;48641;51.676;5.808;2023-04-01T18:49:39;15.00;70.30
62583;DHT22;48641;51.676;5.808;2023-04-01T18:52:37;15.00;70.20
62583;DHT22;48641;51.676;5.808;2023-04-01T18:57:46;15.00;70.30
62583;DHT22;48641;51.676;5.808;2023-04-01T19:00:24;15.00;70.30
62583;DHT22;48641;51.676;5.808;2023-04-01T19:03:34;15.00;70.30
62583;DHT22;48641;51.676;5.808;2023-04-01T19:06:15;15.00;70.20
62583;DHT22;48641;51.676;5.808;2023-04-01T19:08:42;15.00;70.30
62583;DHT22;48641;51.676;5.808;2023-04-01T19:11:39;15.00;70.30
62583;DHT22;48641;51.676;5.808;2023-04-01T19:14:11;15.00;70.20
62583;DHT22;48641;51.676;5.808;2023-04-01T19:16:52;15.00;70.30
62583;DHT22;48641;51.676;5.808;2023-04-01T19:19:38;15.00;70.30
62583;DHT22;48641;51.676;5.808;2023-04-01T19:28:07;15.00;70.20
62583;DHT22;48641;51.676;5.808;2023-04-01T19:31:11;15.00;70.20
62583;DHT22;48641;51.676;5.808;2023-04-01T19:33:59;15.00;70.20
62583;DHT22;48641;51.676;5.808;2023-04-01T19:39:39;15.00;70.20
62583;DHT22;48641;51.676;5.808;2023-04-01T19:42:46;15.00;70.20
62583;DHT22;48641;51.676;5.808;2023-04-01T19:45:38;15.00;70.10
62583;DHT22;48641;51.676;5.808;2023-04-01T19:51:37;14.90;70.20
62583;DHT22;48641;51.676;5.808;2023-04-01T19:53:38;15.00;70.20
62583;DHT22;48641;51.676;5.808;2023-04-01T19:56:16;14.90;70.20
62583;DHT22;48641;51.676;5.808;2023-04-01T20:04:17;14.90;70.30
62583;DHT22;48641;51.676;5.808;2023-04-01T20:07:04;15.00;70.30
62583;DHT22;48641;51.676;5.808;2023-04-01T20:09:51;15.00;70.20
62583;DHT22;48641;51.676;5.808;2023-04-01T20:15:35;15.00;70.20
62583;DHT22;48641;51.676;5.808;2023-04-01T20:18:08;15.00;70.10
62583;DHT22;48641;51.676;5.808;2023-04-01T20:20:38;14.90;70.10
62583;DHT22;48641;51.676;5.808;2023-04-01T20:25:53;15.00;70.10
62583;DHT22;48641;51.676;5.808;2023-04-01T20:28:47;15.00;70.10
62583;DHT22;48641;51.676;5.808;2023-04-01T20:31:40;15.00;70.00
62583;DHT22;48641;51.676;5.808;2023-04-01T20:34:32;15.00;70.00
62583;DHT22;48641;51.676;5.808;2023-04-01T20:37:14;15.00;70.00
62583;DHT22;48641;51.676;5.808;2023-04-01T20:51:25;15.00;70.00
62583;DHT22;48641;51.676;5.808;2023-04-01T20:54:19;15.00;69.90
62583;DHT22;48641;51.676;5.808;2023-04-01T20:56:58;14.90;70.00
62583;DHT22;48641;51.676;5.808;2023-04-01T21:13:31;15.00;70.00
62583;DHT22;48641;51.676;5.808;2023-04-01T21:18:34;14.90;70.10
62583;DHT22;48641;51.676;5.808;2023-04-01T21:23:50;14.90;70.00
62583;DHT22;48641;51.676;5.808;2023-04-01T21:26:29;14.90;69.90
62583;DHT22;48641;51.676;5.808;2023-04-01T21:42:54;14.90;70.30
62583;DHT22;48641;51.676;5.808;2023-04-01T21:45:53;14.90;70.20
62583;DHT22;48641;51.676;5.808;2023-04-01T22:04:50;15.00;69.90
62583;DHT22;48641;51.676;5.808;2023-04-01T22:18:30;14.90;69.80
62583;DHT22;48641;51.676;5.808;2023-04-01T22:21:07;14.90;69.80
62583;DHT22;48641;51.676;5.808;2023-04-01T22:23:47;14.90;69.80
62583;DHT22;48641;51.676;5.808;2023-04-01T22:29:17;14.90;69.80
62583;DHT22;48641;51.676;5.808;2023-04-01T22:31:57;14.90;69.80
62583;DHT22;48641;51.676;5.808;2023-04-01T22:37:23;14.90;69.70
62583;DHT22;48641;51.676;5.808;2023-04-01T22:40:46;14.90;69.80
62583;DHT22;48641;51.676;5.808;2023-04-01T22:42:52;14.90;69.80
62583;DHT22;48641;51.676;5.808;2023-04-01T22:48:45;14.90;69.70
62583;DHT22;48641;51.676;5.808;2023-04-01T22:56:37;14.90;69.80
62583;DHT22;48641;51.676;5.808;2023-04-01T23:02:06;14.90;69.70
62583;DHT22;48641;51.676;5.808;2023-04-01T23:04:39;14.90;69.80
62583;DHT22;48641;51.676;5.808;2023-04-01T23:10:12;14.90;69.80
62583;DHT22;48641;51.676;5.808;2023-04-01T23:12:40;14.90;69.80
62583;DHT22;48641;51.676;5.808;2023-04-01T23:15:12;14.90;69.80
62583;DHT22;48641;51.676;5.808;2023-04-01T23:23:26;14.90;69.60
62583;DHT22;48641;51.676;5.808;2023-04-01T23:31:29;14.90;69.60
62583;DHT22;48641;51.676;5.808;2023-04-01T23:34:25;14.90;69.60
62583;DHT22;48641;51.676;5.808;2023-04-01T23:37:01;14.90;69.60
62583;DHT22;48641;51.676;5.808;2023-04-01T23:39:37;14.90;69.60
62583;DHT22;48641;51.676;5.808;2023-04-01T23:44:45;14.80;69.50
62583;DHT22;48641;51.676;5.808;2023-04-01T23:47:21;14.80;69.50
62583;DHT22;48641;51.676;5.808;2023-04-01T23:49:57;14.90;69.60
62583;DHT22;48641;51.676;5.808;2023-04-01T23:52:26;14.80;69.50
62583;DHT22;48641;51.676;5.808;2023-04-01T23:55:01;14.80;69.50
62583;DHT22;48641;51.676;5.808;2023-04-01T23:57:33;14.80;69.50
